createdAt,value
2018-03-06T00:01:40.404Z,30.93
2018-03-06T00:04:07.370Z,29.33
2018-03-06T00:06:33.500Z,30.47
2018-03-06T00:08:59.660Z,29.43
2018-03-06T00:11:25.807Z,31.83
2018-03-06T00:13:52.705Z,32.40
2018-03-06T00:16:18.975Z,30.43
2018-03-06T00:18:45.161Z,33.03
2018-03-06T00:21:11.372Z,35.37
2018-03-06T00:23:37.677Z,35.13
2018-03-06T00:26:03.866Z,35.40
2018-03-06T00:28:30.726Z,35.30
2018-03-06T00:30:57.641Z,37.00
2018-03-06T00:33:23.735Z,35.73
2018-03-06T00:35:50.704Z,37.30
2018-03-06T00:38:16.833Z,37.40
2018-03-06T00:40:43.036Z,36.17
2018-03-06T00:43:09.256Z,37.03
2018-03-06T00:45:35.457Z,35.43
2018-03-06T00:48:01.625Z,36.37
2018-03-06T00:50:27.762Z,35.93
2018-03-06T00:52:54.803Z,37.50
2018-03-06T00:55:20.920Z,33.00
2018-03-06T00:57:47.792Z,37.20
2018-03-06T01:00:13.972Z,36.57
2018-03-06T01:02:40.101Z,37.17
2018-03-06T01:05:06.230Z,35.27
2018-03-06T01:07:32.415Z,37.70
2018-03-06T01:09:58.536Z,34.23
2018-03-06T01:12:24.644Z,32.07
2018-03-06T01:14:50.829Z,33.80
2018-03-06T01:17:16.925Z,33.97
2018-03-06T01:19:43.047Z,33.63
2018-03-06T01:22:09.200Z,32.37
2018-03-06T01:24:35.300Z,34.90
2018-03-06T01:27:01.445Z,33.33
2018-03-06T01:29:27.750Z,35.10
2018-03-06T01:31:53.856Z,34.80
2018-03-06T01:34:20.017Z,34.30
2018-03-06T01:36:46.134Z,34.33
2018-03-06T01:39:12.265Z,36.53
2018-03-06T01:41:38.411Z,34.20
2018-03-06T01:44:04.531Z,34.90
2018-03-06T01:46:30.652Z,36.43
2018-03-06T01:48:56.752Z,33.73
2018-03-06T01:51:22.889Z,34.60
2018-03-06T01:53:49.046Z,35.50
2018-03-06T01:56:15.140Z,34.37
2018-03-06T01:58:41.660Z,33.70
2018-03-06T02:01:07.796Z,34.80
2018-03-06T02:03:34.673Z,37.20
2018-03-06T02:06:00.816Z,31.23
2018-03-06T02:08:26.930Z,33.17
2018-03-06T02:10:54.135Z,33.80
2018-03-06T02:13:20.292Z,35.87
2018-03-06T02:15:46.420Z,35.60
2018-03-06T02:18:12.593Z,33.33
2018-03-06T02:20:38.772Z,36.63
2018-03-06T02:23:04.928Z,49.47
2018-03-06T02:25:31.260Z,63.60
2018-03-06T02:27:57.370Z,63.17
2018-03-06T02:30:23.917Z,72.57
2018-03-06T02:32:50.386Z,64.57
2018-03-06T02:35:16.636Z,69.70
2018-03-06T02:37:43.638Z,68.30
2018-03-06T02:40:10.517Z,67.60
2018-03-06T02:42:38.308Z,67.27
2018-03-06T02:45:05.202Z,54.80
2018-03-06T02:47:31.329Z,43.47
2018-03-06T02:49:57.464Z,39.43
2018-03-06T02:52:23.660Z,35.90
2018-03-06T02:54:50.583Z,37.67
2018-03-06T02:57:16.680Z,35.37
2018-03-06T02:59:42.815Z,35.93
2018-03-06T03:02:08.963Z,34.60
2018-03-06T03:04:35.130Z,36.10
2018-03-06T03:07:01.392Z,33.77
2018-03-06T03:09:27.801Z,34.00
2018-03-06T03:11:53.945Z,34.80
2018-03-06T03:14:20.720Z,33.50
2018-03-06T03:16:46.810Z,34.10
2018-03-06T03:19:12.942Z,35.80
2018-03-06T03:21:39.993Z,34.70
2018-03-06T03:24:06.453Z,34.70
2018-03-06T03:26:32.564Z,37.87
2018-03-06T03:28:59.429Z,35.10
2018-03-06T03:31:26.515Z,36.27
2018-03-06T03:33:52.647Z,35.27
2018-03-06T03:36:18.776Z,34.40
2018-03-06T03:38:45.365Z,35.97
2018-03-06T03:41:11.522Z,36.83
2018-03-06T03:43:37.784Z,35.40
2018-03-06T03:46:03.962Z,35.77
2018-03-06T03:48:30.110Z,33.83
2018-03-06T03:50:59.051Z,35.10
2018-03-06T03:53:25.190Z,33.03
2018-03-06T03:55:51.683Z,31.87
2018-03-06T03:58:17.792Z,36.30
2018-03-06T04:00:47.658Z,37.70
2018-03-06T04:03:13.879Z,33.23
2018-03-06T04:05:40.756Z,35.03
2018-03-06T04:08:06.859Z,36.50
2018-03-06T04:10:33.761Z,37.37
2018-03-06T04:13:00.018Z,37.07
2018-03-06T04:15:26.147Z,35.27
2018-03-06T04:17:52.303Z,35.27
2018-03-06T04:20:18.667Z,37.30
2018-03-06T04:22:46.637Z,33.80
2018-03-06T04:25:19.822Z,34.00
2018-03-06T04:27:45.955Z,36.00
2018-03-06T04:30:15.820Z,37.00
2018-03-06T04:32:42.204Z,36.10
2018-03-06T04:35:09.490Z,36.17
2018-03-06T04:37:35.662Z,37.47
2018-03-06T04:40:01.857Z,36.77
2018-03-06T04:42:34.065Z,37.10
2018-03-06T04:45:00.988Z,37.30
2018-03-06T04:47:27.122Z,36.70
2018-03-06T04:49:53.268Z,34.90
2018-03-06T04:52:19.680Z,37.67
2018-03-06T04:54:45.953Z,37.93
2018-03-06T04:57:12.099Z,38.00
2018-03-06T04:59:38.313Z,35.03
2018-03-06T05:02:04.592Z,37.80
2018-03-06T05:04:30.770Z,37.23
2018-03-06T05:06:57.716Z,39.13
2018-03-06T05:09:23.948Z,37.03
2018-03-06T05:11:50.060Z,36.70
2018-03-06T05:14:16.195Z,35.47
2018-03-06T05:16:42.355Z,35.00
2018-03-06T05:19:08.483Z,38.90
2018-03-06T05:21:34.668Z,37.23
2018-03-06T05:24:01.520Z,36.00
2018-03-06T05:26:28.387Z,38.60
2018-03-06T05:29:02.158Z,35.47
2018-03-06T05:31:28.329Z,37.50
2018-03-06T05:33:55.233Z,36.57
2018-03-06T05:36:21.352Z,38.50
2018-03-06T05:38:47.484Z,37.63
2018-03-06T05:41:13.625Z,38.13
2018-03-06T05:43:39.748Z,39.90
2018-03-06T05:46:06.616Z,37.43
2018-03-06T05:48:32.772Z,36.63
2018-03-06T05:51:02.701Z,36.80
2018-03-06T05:53:28.781Z,39.40
2018-03-06T05:55:54.915Z,39.00
2018-03-06T05:58:21.031Z,37.83
2018-03-06T06:00:47.154Z,38.33
2018-03-06T06:03:13.306Z,36.60
2018-03-06T06:05:39.487Z,39.63
2018-03-06T06:08:05.651Z,37.87
2018-03-06T06:10:31.818Z,40.53
2018-03-06T06:12:57.955Z,40.50
2018-03-06T06:15:24.068Z,38.80
2018-03-06T06:17:50.943Z,36.10
2018-03-06T06:20:17.081Z,35.93
2018-03-06T06:22:43.211Z,35.97
2018-03-06T06:25:10.069Z,37.80
2018-03-06T06:27:36.955Z,39.40
2018-03-06T06:30:03.107Z,36.60
2018-03-06T06:32:29.233Z,38.90
2018-03-06T06:34:55.290Z,37.90
2018-03-06T06:37:21.410Z,38.93
2018-03-06T06:39:47.495Z,38.03
2018-03-06T06:42:14.323Z,40.60
2018-03-06T06:44:40.488Z,39.87
2018-03-06T06:47:07.675Z,40.20
2018-03-06T06:49:33.829Z,40.20
2018-03-06T06:51:59.961Z,40.27
2018-03-06T06:54:26.218Z,38.20
2018-03-06T06:56:52.346Z,39.57
2018-03-06T06:59:18.556Z,39.53
2018-03-06T07:01:45.409Z,39.47
2018-03-06T07:04:11.636Z,40.07
2018-03-06T07:06:37.740Z,40.40
2018-03-06T07:09:03.856Z,38.57
2018-03-06T07:11:30.012Z,39.57
2018-03-06T07:13:56.152Z,39.90
2018-03-06T07:16:22.348Z,40.60
2018-03-06T07:18:49.206Z,38.60
2018-03-06T07:21:15.610Z,41.00
2018-03-06T07:23:41.718Z,41.20
2018-03-06T07:26:07.846Z,40.97
2018-03-06T07:28:33.998Z,40.13
2018-03-06T07:31:00.144Z,38.50
2018-03-06T07:33:26.239Z,39.80
2018-03-06T07:35:53.106Z,38.97
2018-03-06T07:38:19.960Z,41.37
2018-03-06T07:40:46.777Z,39.77
2018-03-06T07:43:12.908Z,41.57
2018-03-06T07:45:39.032Z,42.47
2018-03-06T07:48:05.155Z,42.63
2018-03-06T07:50:31.893Z,41.07
2018-03-06T07:52:58.065Z,41.87
2018-03-06T07:55:24.174Z,40.03
2018-03-06T07:57:50.296Z,43.07
2018-03-06T08:00:17.155Z,41.37
2018-03-06T08:02:44.257Z,40.80
2018-03-06T08:05:10.412Z,41.67
2018-03-06T08:07:36.513Z,45.57
2018-03-06T08:10:02.617Z,44.90
2018-03-06T08:12:29.531Z,43.33
2018-03-06T08:14:56.531Z,43.20
2018-03-06T08:17:24.499Z,43.07
2018-03-06T08:19:52.416Z,40.77
2018-03-06T08:22:20.451Z,40.50
2018-03-06T08:24:49.020Z,41.50
2018-03-06T08:27:16.953Z,44.80
2018-03-06T08:29:44.861Z,45.67
2018-03-06T08:32:12.717Z,44.63
2018-03-06T08:34:40.606Z,48.13
2018-03-06T08:37:08.561Z,48.90
2018-03-06T08:39:36.450Z,44.57
2018-03-06T08:42:04.382Z,42.70
2018-03-06T08:44:32.295Z,41.97
2018-03-06T08:47:00.164Z,41.33
2018-03-06T08:49:28.036Z,43.93
2018-03-06T08:51:55.910Z,45.90
2018-03-06T08:54:23.798Z,47.73
2018-03-06T08:56:51.760Z,42.67
2018-03-06T08:59:19.633Z,41.07
2018-03-06T09:01:47.496Z,42.87
2018-03-06T09:04:15.365Z,43.93
2018-03-06T09:06:43.236Z,47.43
2018-03-06T09:09:11.626Z,45.07
2018-03-06T09:11:39.527Z,45.70
2018-03-06T09:14:07.380Z,39.43
2018-03-06T09:16:35.359Z,43.03
2018-03-06T09:19:03.235Z,36.43
2018-03-06T09:21:31.078Z,36.47
2018-03-06T09:23:58.930Z,41.40
2018-03-06T09:26:26.808Z,42.97
2018-03-06T09:28:54.749Z,42.63
2018-03-06T09:31:22.780Z,40.67
2018-03-06T09:33:50.747Z,43.80
2018-03-06T09:36:18.867Z,40.90
2018-03-06T09:38:46.927Z,43.60
2018-03-06T09:41:15.339Z,45.87
2018-03-06T09:43:43.566Z,42.63
2018-03-06T09:46:11.423Z,44.83
2018-03-06T09:48:39.300Z,45.90
2018-03-06T09:51:07.191Z,41.87
2018-03-06T09:53:35.335Z,45.50
2018-03-06T09:56:03.296Z,43.10
2018-03-06T09:58:31.440Z,44.20
2018-03-06T10:00:59.396Z,42.80
2018-03-06T10:03:27.315Z,43.83
2018-03-06T10:05:55.163Z,44.37
2018-03-06T10:08:23.137Z,45.07
2018-03-06T10:10:51.054Z,42.53
2018-03-06T10:13:18.983Z,43.93
2018-03-06T10:15:46.937Z,43.90
2018-03-06T10:18:14.799Z,44.97
2018-03-06T10:20:42.643Z,44.37
2018-03-06T10:23:11.361Z,46.23
2018-03-06T10:25:39.375Z,42.77
2018-03-06T10:28:07.282Z,44.97
2018-03-06T10:30:35.187Z,41.70
2018-03-06T10:33:03.112Z,42.23
2018-03-06T10:35:30.976Z,40.77
2018-03-06T10:37:59.053Z,43.70
2018-03-06T10:40:26.953Z,41.87
2018-03-06T10:42:54.818Z,42.10
2018-03-06T10:45:22.793Z,38.27
2018-03-06T10:47:50.677Z,42.40
2018-03-06T10:50:18.635Z,42.90
2018-03-06T10:52:46.510Z,43.03
2018-03-06T10:55:14.421Z,43.67
2018-03-06T10:57:42.280Z,44.23
2018-03-06T11:00:10.202Z,44.60
2018-03-06T11:02:42.018Z,42.70
2018-03-06T11:05:10.065Z,46.70
2018-03-06T11:07:38.016Z,45.73
2018-03-06T11:10:06.180Z,45.60
2018-03-06T11:12:34.261Z,40.33
2018-03-06T11:15:02.163Z,40.30
2018-03-06T11:17:30.051Z,44.37
2018-03-06T11:19:57.916Z,44.60
2018-03-06T11:22:25.867Z,46.60
2018-03-06T11:24:53.896Z,48.87
2018-03-06T11:27:21.882Z,49.20
2018-03-06T11:29:49.785Z,47.00
2018-03-06T11:32:17.656Z,46.47
2018-03-06T11:34:45.639Z,53.43
2018-03-06T11:37:13.469Z,45.63
2018-03-06T11:39:41.521Z,44.33
2018-03-06T11:42:09.512Z,45.13
2018-03-06T11:44:37.383Z,45.73
2018-03-06T11:47:05.448Z,43.37
2018-03-06T11:49:33.540Z,41.60
2018-03-06T11:52:01.407Z,40.90
2018-03-06T11:54:29.302Z,43.20
2018-03-06T11:56:57.168Z,47.30
2018-03-06T11:59:25.109Z,43.70
2018-03-06T12:01:53.212Z,43.50
2018-03-06T12:04:21.096Z,47.20
2018-03-06T12:06:49.855Z,48.60
2018-03-06T12:09:17.738Z,48.83
2018-03-06T12:11:45.848Z,46.30
2018-03-06T12:14:13.741Z,59.77
2018-03-06T12:16:41.645Z,48.10
2018-03-06T12:19:09.592Z,46.77
2018-03-06T12:21:37.431Z,47.03
2018-03-06T12:24:06.005Z,52.70
2018-03-06T12:26:34.059Z,46.40
2018-03-06T12:29:02.078Z,50.53
2018-03-06T12:31:30.026Z,49.27
2018-03-06T12:33:57.870Z,46.47
2018-03-06T12:36:25.734Z,48.03
2018-03-06T12:38:53.664Z,47.40
2018-03-06T12:41:21.581Z,47.73
2018-03-06T12:43:50.599Z,43.53
2018-03-06T12:46:19.572Z,45.93
2018-03-06T12:48:47.453Z,37.03
2018-03-06T12:51:15.332Z,43.60
2018-03-06T12:53:43.197Z,48.30
2018-03-06T12:56:11.155Z,48.67
2018-03-06T12:58:39.081Z,48.03
2018-03-06T13:01:07.919Z,49.37
2018-03-06T13:03:35.835Z,47.23
2018-03-06T13:06:03.956Z,47.13
2018-03-06T13:08:31.869Z,47.80
2018-03-06T13:10:59.775Z,47.43
2018-03-06T13:13:27.614Z,49.43
2018-03-06T13:15:55.525Z,48.00
2018-03-06T13:18:23.549Z,47.40
2018-03-06T13:20:51.442Z,51.63
2018-03-06T13:23:19.342Z,49.70
2018-03-06T13:25:47.208Z,49.53
2018-03-06T13:28:15.072Z,52.63
2018-03-06T13:30:43.603Z,51.00
2018-03-06T13:33:12.054Z,50.70
2018-03-06T13:35:39.896Z,49.93
2018-03-06T13:38:07.747Z,49.53
2018-03-06T13:40:35.645Z,52.20
2018-03-06T13:43:03.562Z,54.60
2018-03-06T13:45:31.448Z,52.27
2018-03-06T13:47:59.339Z,51.90
2018-03-06T13:50:27.189Z,52.77
2018-03-06T13:52:55.080Z,51.57
2018-03-06T13:55:22.958Z,55.60
2018-03-06T13:57:50.803Z,52.83
2018-03-06T14:00:18.647Z,53.60
2018-03-06T14:02:46.548Z,58.57
2018-03-06T14:05:14.403Z,59.20
2018-03-06T14:07:42.288Z,61.50
2018-03-06T14:10:10.201Z,64.33
2018-03-06T14:12:38.108Z,68.07
2018-03-06T14:15:05.960Z,65.97
2018-03-06T14:17:34.170Z,65.70
2018-03-06T14:20:02.091Z,70.63
2018-03-06T14:22:30.179Z,70.27
2018-03-06T14:24:58.204Z,70.93
2018-03-06T14:27:27.052Z,77.00
2018-03-06T14:29:54.968Z,80.87
2018-03-06T14:32:22.958Z,82.80
2018-03-06T14:34:53.640Z,83.50
2018-03-06T14:37:21.547Z,76.37
2018-03-06T14:39:49.469Z,81.20
2018-03-06T14:42:17.331Z,83.40
2018-03-06T14:44:45.228Z,84.30
2018-03-06T14:47:13.232Z,75.80
2018-03-06T14:49:41.116Z,79.17
2018-03-06T14:52:09.014Z,71.00
2018-03-06T14:54:36.889Z,71.80
2018-03-06T14:57:04.756Z,73.80
2018-03-06T14:59:32.776Z,71.77
2018-03-06T15:02:00.711Z,69.23
2018-03-06T15:04:28.543Z,64.43
2018-03-06T15:06:56.391Z,61.00
2018-03-06T15:09:24.360Z,58.00
2018-03-06T15:11:52.329Z,56.00
2018-03-06T15:14:20.223Z,62.63
2018-03-06T15:16:48.141Z,56.80
2018-03-06T15:19:16.017Z,59.90
2018-03-06T15:21:43.859Z,56.83
2018-03-06T15:24:11.739Z,58.73
2018-03-06T15:26:40.155Z,61.03
2018-03-06T15:29:08.408Z,60.60
2018-03-06T15:31:36.852Z,58.70
2018-03-06T15:34:05.292Z,69.03
2018-03-06T15:36:33.641Z,67.50
2018-03-06T15:39:01.581Z,70.57
2018-03-06T15:41:29.804Z,63.37
2018-03-06T15:43:57.675Z,68.93
2018-03-06T15:46:25.552Z,69.57
2018-03-06T15:48:53.379Z,66.43
2018-03-06T15:51:21.222Z,68.53
2018-03-06T15:53:49.370Z,72.10
2018-03-06T15:56:17.208Z,61.63
2018-03-06T15:58:45.039Z,78.27
2018-03-06T16:01:12.922Z,63.63
2018-03-06T16:03:40.807Z,75.07
2018-03-06T16:06:08.710Z,52.57
2018-03-06T16:08:36.790Z,58.53
2018-03-06T16:11:04.818Z,57.80
2018-03-06T16:13:32.884Z,69.23
2018-03-06T16:16:00.816Z,69.30
2018-03-06T16:18:28.779Z,71.30
2018-03-06T16:20:56.637Z,68.30
2018-03-06T16:23:24.575Z,75.20
2018-03-06T16:25:52.431Z,68.87
2018-03-06T16:28:20.285Z,74.47
2018-03-06T16:30:48.171Z,72.00
2018-03-06T16:33:16.046Z,74.70
2018-03-06T16:35:43.915Z,76.90
2018-03-06T16:38:11.870Z,79.30
2018-03-06T16:40:38.066Z,64.77
2018-03-06T16:43:04.261Z,86.03
2018-03-06T16:45:30.377Z,74.77
2018-03-06T16:47:56.485Z,79.77
2018-03-06T16:50:22.587Z,80.37
2018-03-06T16:52:48.722Z,80.73
2018-03-06T16:55:14.841Z,76.20
2018-03-06T16:57:40.972Z,83.20
2018-03-06T17:00:07.233Z,86.13
2018-03-06T17:02:33.479Z,102.00
2018-03-06T17:04:59.636Z,113.10
2018-03-06T17:07:25.791Z,95.40
2018-03-06T17:09:52.654Z,90.90
2018-03-06T17:12:18.945Z,108.20
2018-03-06T17:14:45.251Z,117.10
2018-03-06T17:17:11.401Z,119.40
2018-03-06T17:19:37.526Z,115.70
2018-03-06T17:22:05.264Z,109.37
2018-03-06T17:24:32.119Z,103.90
2018-03-06T17:26:58.237Z,96.80
2018-03-06T17:29:24.344Z,93.40
2018-03-06T17:31:50.462Z,104.50
2018-03-06T17:34:16.620Z,91.07
2018-03-06T17:36:42.712Z,92.87
2018-03-06T17:39:08.853Z,95.43
2018-03-06T17:44:33.516Z,99.33
2018-03-06T17:46:59.608Z,102.83
2018-03-06T17:49:25.757Z,98.90
2018-03-06T17:51:52.001Z,96.03
2018-03-06T17:54:18.133Z,91.73
2018-03-06T17:56:44.262Z,96.50
2018-03-06T17:59:10.373Z,100.57
2018-03-06T18:01:36.516Z,98.30
2018-03-06T18:04:02.872Z,99.47
2018-03-06T18:06:28.973Z,99.07
2018-03-06T18:08:56.151Z,98.23
2018-03-06T18:11:22.235Z,95.63
2018-03-06T18:13:49.114Z,97.00
2018-03-06T18:16:15.355Z,94.00
2018-03-06T18:18:41.472Z,97.33
2018-03-06T18:21:07.808Z,92.20
2018-03-06T18:23:34.930Z,98.63
2018-03-06T18:26:01.162Z,101.97
2018-03-06T18:28:27.276Z,94.83
2018-03-06T18:30:53.568Z,100.30
2018-03-06T18:33:19.659Z,95.90
2018-03-06T18:35:45.756Z,96.40
2018-03-06T18:38:11.896Z,96.30
2018-03-06T18:40:38.954Z,93.40
2018-03-06T18:43:05.208Z,87.10
2018-03-06T18:45:31.347Z,87.57
2018-03-06T18:47:57.458Z,89.13
2018-03-06T18:50:35.972Z,90.70
2018-03-06T18:53:05.550Z,85.73
2018-03-06T18:55:32.418Z,88.27
2018-03-06T18:57:58.572Z,80.27
2018-03-06T19:03:31.556Z,81.73
2018-03-06T19:06:10.878Z,80.00
2018-03-06T19:08:37.222Z,80.17
2018-03-06T19:11:03.413Z,78.77
2018-03-06T19:13:29.567Z,75.00
2018-03-06T19:15:55.697Z,73.70
2018-03-06T19:18:21.855Z,74.63
2018-03-06T19:20:47.954Z,70.77
2018-03-06T19:23:14.060Z,73.70
2018-03-06T19:25:40.169Z,70.93
2018-03-06T19:28:06.345Z,68.80
2018-03-06T19:30:32.571Z,71.30
2018-03-06T19:32:58.751Z,69.57
2018-03-06T19:35:24.861Z,68.60
2018-03-06T19:37:51.078Z,68.00
2018-03-06T19:40:17.920Z,68.17
2018-03-06T19:42:44.013Z,63.50
2018-03-06T19:45:10.129Z,63.40
2018-03-06T19:47:36.263Z,62.43
2018-03-06T19:50:02.785Z,61.47
2018-03-06T19:52:29.043Z,64.23
2018-03-06T19:54:55.244Z,62.57
2018-03-06T19:57:21.446Z,64.23
2018-03-06T19:59:49.423Z,62.23
2018-03-06T20:02:15.574Z,60.67
2018-03-06T20:04:41.887Z,62.77
2018-03-06T20:07:08.009Z,60.97
2018-03-06T20:09:34.144Z,55.67
2018-03-06T20:12:01.699Z,57.40
2018-03-06T20:14:34.398Z,56.53
2018-03-06T20:17:01.103Z,54.80
2018-03-06T20:19:44.424Z,55.13
2018-03-06T20:22:11.097Z,53.80
2018-03-06T20:24:44.794Z,56.50
2018-03-06T20:27:11.924Z,52.40
2018-03-06T20:29:38.343Z,52.57
2018-03-06T20:32:11.347Z,50.73
2018-03-06T20:34:39.596Z,49.40
2018-03-06T20:37:07.481Z,54.00
2018-03-06T20:39:41.827Z,55.73
2018-03-06T20:42:09.827Z,60.70
2018-03-06T20:44:37.800Z,57.73
2018-03-06T20:47:12.028Z,55.30
2018-03-06T20:49:39.967Z,58.63
2018-03-06T20:52:07.865Z,48.00
2018-03-06T20:54:41.784Z,49.20
2018-03-06T20:57:09.624Z,54.67
2018-03-06T20:59:37.473Z,53.47
2018-03-06T21:02:05.659Z,52.73
2018-03-06T21:04:33.583Z,51.77
2018-03-06T21:07:06.483Z,56.40
2018-03-06T21:09:34.380Z,54.20
2018-03-06T21:12:02.309Z,51.37
2018-03-06T21:14:31.502Z,48.60
2018-03-06T21:16:59.367Z,48.40
2018-03-06T21:19:27.295Z,53.97
2018-03-06T21:21:55.289Z,51.80
2018-03-06T21:24:23.572Z,48.70
2018-03-06T21:26:51.442Z,50.30
2018-03-06T21:29:19.309Z,48.97
2018-03-06T21:31:47.193Z,48.50
2018-03-06T21:34:15.039Z,49.40
2018-03-06T21:36:42.908Z,48.80
2018-03-06T21:39:10.758Z,48.70
2018-03-06T21:41:38.624Z,49.23
2018-03-06T21:44:06.715Z,50.93
2018-03-06T21:46:34.903Z,48.70
2018-03-06T21:49:03.052Z,49.30
2018-03-06T21:51:31.037Z,53.90
2018-03-06T21:53:58.979Z,47.40
2018-03-06T21:56:27.025Z,49.80
2018-03-06T21:58:59.301Z,47.97
2018-03-06T22:01:27.346Z,49.00
2018-03-06T22:03:55.351Z,49.03
2018-03-06T22:06:23.362Z,48.57
2018-03-06T22:08:51.300Z,49.00
2018-03-06T22:11:19.177Z,47.50
2018-03-06T22:13:47.137Z,48.07
2018-03-06T22:16:15.043Z,46.50
2018-03-06T22:18:42.950Z,49.33
2018-03-06T22:21:10.839Z,48.30
2018-03-06T22:23:38.717Z,46.13
2018-03-06T22:26:06.674Z,47.23
2018-03-06T22:28:34.568Z,46.57
2018-03-06T22:31:02.532Z,47.37
2018-03-06T22:33:30.385Z,47.17
2018-03-06T22:35:59.103Z,44.23
2018-03-06T22:38:27.022Z,46.47
2018-03-06T22:40:54.843Z,46.40
2018-03-06T22:43:22.739Z,46.17
2018-03-06T22:45:50.575Z,46.23
2018-03-06T22:48:18.472Z,43.40
2018-03-06T22:50:46.318Z,43.77
2018-03-06T22:53:14.177Z,46.20
2018-03-06T22:55:42.068Z,47.20
2018-03-06T22:58:09.949Z,44.37
2018-03-06T23:00:37.956Z,45.57
2018-03-06T23:03:05.897Z,49.80
2018-03-06T23:05:33.783Z,46.33
2018-03-06T23:08:01.686Z,39.47
2018-03-06T23:10:29.679Z,43.40
2018-03-06T23:12:57.523Z,41.90
2018-03-06T23:15:25.452Z,39.33
2018-03-06T23:17:53.370Z,40.80
2018-03-06T23:20:21.249Z,42.50
2018-03-06T23:22:49.248Z,40.67
2018-03-06T23:25:17.100Z,40.30
2018-03-06T23:27:44.949Z,40.07
2018-03-06T23:30:12.837Z,40.47
2018-03-06T23:32:40.698Z,38.67
2018-03-06T23:35:08.713Z,38.87
2018-03-06T23:37:36.632Z,39.43
2018-03-06T23:40:04.510Z,41.03
2018-03-06T23:42:32.408Z,41.40
2018-03-06T23:45:00.340Z,39.27
2018-03-06T23:47:28.320Z,39.97
2018-03-06T23:49:56.184Z,39.67
2018-03-06T23:52:24.050Z,42.80
2018-03-06T23:54:52.094Z,42.43
2018-03-06T23:57:19.945Z,40.20
2018-03-06T23:59:47.830Z,40.03
